sensor_id;sensor_type;location;lat;lon;timestamp;P1;durP1;ratioP1;P2;durP2;ratioP2
47219;SDS011;32961;51.936;4.788;2023-01-20T00:48:19;33.88;;;18.95;;
47219;SDS011;32961;51.936;4.788;2023-01-20T00:55:07;38.55;;;19.02;;
47219;SDS011;32961;51.936;4.788;2023-01-20T00:58:08;43.50;;;19.23;;
47219;SDS011;32961;51.936;4.788;2023-01-20T01:01:08;39.53;;;19.13;;
47219;SDS011;32961;51.936;4.788;2023-01-20T01:22:46;31.27;;;17.83;;
47219;SDS011;32961;51.936;4.788;2023-01-20T01:25:56;34.33;;;16.98;;
47219;SDS011;32961;51.936;4.788;2023-01-20T01:29:40;34.50;;;18.55;;
47219;SDS011;32961;51.936;4.788;2023-01-20T01:32:58;33.63;;;18.50;;
47219;SDS011;32961;51.936;4.788;2023-01-20T01:36:04;35.17;;;17.15;;
47219;SDS011;32961;51.936;4.788;2023-01-20T01:42:01;33.70;;;17.65;;
47219;SDS011;32961;51.936;4.788;2023-01-20T01:47:53;34.55;;;17.38;;
47219;SDS011;32961;51.936;4.788;2023-01-20T01:50:31;32.30;;;16.52;;
47219;SDS011;32961;51.936;4.788;2023-01-20T01:53:08;31.80;;;15.77;;
47219;SDS011;32961;51.936;4.788;2023-01-20T01:55:46;33.83;;;17.48;;
47219;SDS011;32961;51.936;4.788;2023-01-20T01:58:19;35.67;;;17.05;;
47219;SDS011;32961;51.936;4.788;2023-01-20T02:00:54;36.67;;;16.33;;
47219;SDS011;32961;51.936;4.788;2023-01-20T02:03:23;33.30;;;15.95;;
47219;SDS011;32961;51.936;4.788;2023-01-20T02:05:54;36.67;;;16.40;;
47219;SDS011;32961;51.936;4.788;2023-01-20T02:08:23;28.08;;;15.10;;
47219;SDS011;32961;51.936;4.788;2023-01-20T02:10:54;28.77;;;15.38;;
47219;SDS011;32961;51.936;4.788;2023-01-20T02:13:22;28.40;;;14.80;;
47219;SDS011;32961;51.936;4.788;2023-01-20T02:15:52;32.15;;;15.05;;
47219;SDS011;32961;51.936;4.788;2023-01-20T02:18:34;32.22;;;15.43;;
47219;SDS011;32961;51.936;4.788;2023-01-20T02:24:26;26.38;;;15.32;;
47219;SDS011;32961;51.936;4.788;2023-01-20T02:27:12;28.23;;;15.45;;
47219;SDS011;32961;51.936;4.788;2023-01-20T02:30:04;31.60;;;16.30;;
47219;SDS011;32961;51.936;4.788;2023-01-20T02:32:57;33.58;;;16.85;;
47219;SDS011;32961;51.936;4.788;2023-01-20T02:35:34;32.05;;;17.13;;
47219;SDS011;32961;51.936;4.788;2023-01-20T02:38:10;35.72;;;17.42;;
47219;SDS011;32961;51.936;4.788;2023-01-20T02:40:47;38.92;;;17.25;;
47219;SDS011;32961;51.936;4.788;2023-01-20T02:43:21;37.13;;;17.23;;
47219;SDS011;32961;51.936;4.788;2023-01-20T02:45:56;36.50;;;17.58;;
47219;SDS011;32961;51.936;4.788;2023-01-20T02:48:34;45.17;;;18.92;;
47219;SDS011;32961;51.936;4.788;2023-01-20T02:51:11;43.67;;;19.25;;
47219;SDS011;32961;51.936;4.788;2023-01-20T02:53:44;34.25;;;18.63;;
47219;SDS011;32961;51.936;4.788;2023-01-20T02:56:15;40.00;;;19.92;;
47219;SDS011;32961;51.936;4.788;2023-01-20T02:58:46;46.15;;;20.80;;
47219;SDS011;32961;51.936;4.788;2023-01-20T03:01:19;42.40;;;21.98;;
47219;SDS011;32961;51.936;4.788;2023-01-20T03:03:54;52.72;;;23.70;;
47219;SDS011;32961;51.936;4.788;2023-01-20T03:06:27;46.72;;;22.23;;
47219;SDS011;32961;51.936;4.788;2023-01-20T03:09:02;45.90;;;23.17;;
47219;SDS011;32961;51.936;4.788;2023-01-20T03:11:34;45.50;;;23.65;;
47219;SDS011;32961;51.936;4.788;2023-01-20T03:14:10;51.80;;;24.17;;
47219;SDS011;32961;51.936;4.788;2023-01-20T03:16:40;51.03;;;24.13;;
47219;SDS011;32961;51.936;4.788;2023-01-20T03:19:10;52.70;;;26.58;;
47219;SDS011;32961;51.936;4.788;2023-01-20T03:21:39;54.08;;;25.67;;
47219;SDS011;32961;51.936;4.788;2023-01-20T03:24:07;52.05;;;24.67;;
47219;SDS011;32961;51.936;4.788;2023-01-20T03:26:36;54.17;;;24.77;;
47219;SDS011;32961;51.936;4.788;2023-01-20T03:29:06;53.53;;;25.27;;
47219;SDS011;32961;51.936;4.788;2023-01-20T03:31:37;61.20;;;28.25;;
47219;SDS011;32961;51.936;4.788;2023-01-20T03:34:08;57.33;;;25.90;;
47219;SDS011;32961;51.936;4.788;2023-01-20T03:36:41;58.38;;;26.67;;
47219;SDS011;32961;51.936;4.788;2023-01-20T03:39:14;60.05;;;26.98;;
47219;SDS011;32961;51.936;4.788;2023-01-20T03:41:46;56.30;;;25.85;;
47219;SDS011;32961;51.936;4.788;2023-01-20T03:44:25;57.78;;;26.15;;
47219;SDS011;32961;51.936;4.788;2023-01-20T03:47:02;58.85;;;27.38;;
47219;SDS011;32961;51.936;4.788;2023-01-20T03:49:38;62.38;;;27.20;;
47219;SDS011;32961;51.936;4.788;2023-01-20T03:52:14;64.20;;;29.95;;
47219;SDS011;32961;51.936;4.788;2023-01-20T03:55:10;56.78;;;27.75;;
47219;SDS011;32961;51.936;4.788;2023-01-20T03:57:43;71.07;;;31.45;;
47219;SDS011;32961;51.936;4.788;2023-01-20T04:00:16;69.60;;;31.40;;
47219;SDS011;32961;51.936;4.788;2023-01-20T04:02:55;61.35;;;26.83;;
47219;SDS011;32961;51.936;4.788;2023-01-20T04:05:27;54.65;;;27.98;;
47219;SDS011;32961;51.936;4.788;2023-01-20T04:07:56;54.65;;;25.05;;
47219;SDS011;32961;51.936;4.788;2023-01-20T04:10:31;69.75;;;27.73;;
47219;SDS011;32961;51.936;4.788;2023-01-20T04:13:03;55.72;;;27.42;;
47219;SDS011;32961;51.936;4.788;2023-01-20T04:15:32;59.20;;;27.05;;
47219;SDS011;32961;51.936;4.788;2023-01-20T04:18:10;60.95;;;27.88;;
47219;SDS011;32961;51.936;4.788;2023-01-20T04:20:41;62.75;;;30.73;;
47219;SDS011;32961;51.936;4.788;2023-01-20T04:23:13;69.20;;;30.25;;
47219;SDS011;32961;51.936;4.788;2023-01-20T04:25:47;68.32;;;30.60;;
47219;SDS011;32961;51.936;4.788;2023-01-20T04:28:16;76.57;;;30.30;;
47219;SDS011;32961;51.936;4.788;2023-01-20T04:30:44;70.20;;;30.85;;
47219;SDS011;32961;51.936;4.788;2023-01-20T04:33:12;72.72;;;30.30;;
47219;SDS011;32961;51.936;4.788;2023-01-20T04:35:42;76.50;;;31.35;;
47219;SDS011;32961;51.936;4.788;2023-01-20T04:38:10;80.88;;;36.30;;
47219;SDS011;32961;51.936;4.788;2023-01-20T04:40:39;87.55;;;37.20;;
47219;SDS011;32961;51.936;4.788;2023-01-20T04:43:07;82.72;;;36.00;;
47219;SDS011;32961;51.936;4.788;2023-01-20T04:45:37;85.05;;;34.90;;
47219;SDS011;32961;51.936;4.788;2023-01-20T04:48:08;84.50;;;33.33;;
47219;SDS011;32961;51.936;4.788;2023-01-20T04:50:37;80.50;;;32.20;;
47219;SDS011;32961;51.936;4.788;2023-01-20T04:53:08;81.03;;;34.35;;
47219;SDS011;32961;51.936;4.788;2023-01-20T04:55:38;83.37;;;32.30;;
47219;SDS011;32961;51.936;4.788;2023-01-20T04:58:08;83.32;;;34.58;;
47219;SDS011;32961;51.936;4.788;2023-01-20T05:00:36;82.25;;;35.47;;
47219;SDS011;32961;51.936;4.788;2023-01-20T05:03:04;84.07;;;36.63;;
47219;SDS011;32961;51.936;4.788;2023-01-20T05:05:33;92.20;;;37.03;;
47219;SDS011;32961;51.936;4.788;2023-01-20T05:08:01;89.00;;;38.90;;
47219;SDS011;32961;51.936;4.788;2023-01-20T05:10:32;96.18;;;37.55;;
47219;SDS011;32961;51.936;4.788;2023-01-20T05:13:00;91.97;;;38.20;;
47219;SDS011;32961;51.936;4.788;2023-01-20T05:15:29;94.60;;;38.75;;
47219;SDS011;32961;51.936;4.788;2023-01-20T05:17:57;100.50;;;38.33;;
47219;SDS011;32961;51.936;4.788;2023-01-20T05:20:25;95.63;;;38.67;;
47219;SDS011;32961;51.936;4.788;2023-01-20T05:22:54;85.43;;;36.40;;
47219;SDS011;32961;51.936;4.788;2023-01-20T05:25:25;90.22;;;38.33;;
47219;SDS011;32961;51.936;4.788;2023-01-20T05:27:55;92.32;;;38.05;;
47219;SDS011;32961;51.936;4.788;2023-01-20T05:30:27;84.85;;;36.05;;
47219;SDS011;32961;51.936;4.788;2023-01-20T05:32:55;87.13;;;36.58;;
47219;SDS011;32961;51.936;4.788;2023-01-20T05:35:26;93.43;;;37.30;;
47219;SDS011;32961;51.936;4.788;2023-01-20T05:37:57;114.45;;;38.38;;
47219;SDS011;32961;51.936;4.788;2023-01-20T05:40:28;87.88;;;35.38;;
47219;SDS011;32961;51.936;4.788;2023-01-20T05:42:59;88.38;;;37.15;;
47219;SDS011;32961;51.936;4.788;2023-01-20T05:45:30;91.97;;;37.15;;
47219;SDS011;32961;51.936;4.788;2023-01-20T05:47:59;88.95;;;35.15;;
47219;SDS011;32961;51.936;4.788;2023-01-20T05:50:28;100.10;;;40.97;;
47219;SDS011;32961;51.936;4.788;2023-01-20T05:52:57;91.63;;;37.60;;
47219;SDS011;32961;51.936;4.788;2023-01-20T05:55:26;88.20;;;35.45;;
47219;SDS011;32961;51.936;4.788;2023-01-20T05:58:01;81.47;;;35.78;;
47219;SDS011;32961;51.936;4.788;2023-01-20T06:00:31;80.82;;;35.67;;
47219;SDS011;32961;51.936;4.788;2023-01-20T06:02:59;78.72;;;33.30;;
47219;SDS011;32961;51.936;4.788;2023-01-20T06:05:29;82.15;;;33.10;;
47219;SDS011;32961;51.936;4.788;2023-01-20T06:08:00;83.82;;;33.33;;
47219;SDS011;32961;51.936;4.788;2023-01-20T06:10:28;91.00;;;34.85;;
47219;SDS011;32961;51.936;4.788;2023-01-20T06:12:57;86.50;;;33.28;;
47219;SDS011;32961;51.936;4.788;2023-01-20T06:15:41;75.97;;;32.43;;
47219;SDS011;32961;51.936;4.788;2023-01-20T06:18:10;76.97;;;32.95;;
47219;SDS011;32961;51.936;4.788;2023-01-20T06:20:39;84.53;;;34.53;;
47219;SDS011;32961;51.936;4.788;2023-01-20T06:23:08;79.03;;;32.58;;
47219;SDS011;32961;51.936;4.788;2023-01-20T06:25:36;90.85;;;33.40;;
47219;SDS011;32961;51.936;4.788;2023-01-20T06:28:07;76.70;;;34.15;;
47219;SDS011;32961;51.936;4.788;2023-01-20T06:30:39;81.03;;;33.53;;
47219;SDS011;32961;51.936;4.788;2023-01-20T06:33:10;74.90;;;29.83;;
47219;SDS011;32961;51.936;4.788;2023-01-20T06:35:48;69.38;;;30.88;;
47219;SDS011;32961;51.936;4.788;2023-01-20T06:38:20;76.55;;;31.15;;
47219;SDS011;32961;51.936;4.788;2023-01-20T06:41:04;71.95;;;30.15;;
47219;SDS011;32961;51.936;4.788;2023-01-20T06:43:42;77.13;;;31.20;;
47219;SDS011;32961;51.936;4.788;2023-01-20T06:46:20;64.72;;;30.17;;
47219;SDS011;32961;51.936;4.788;2023-01-20T06:49:04;71.85;;;31.10;;
47219;SDS011;32961;51.936;4.788;2023-01-20T11:26:16;28.05;;;16.75;;
47219;SDS011;32961;51.936;4.788;2023-01-20T11:28:54;31.17;;;16.80;;
47219;SDS011;32961;51.936;4.788;2023-01-20T11:34:19;26.85;;;16.83;;
47219;SDS011;32961;51.936;4.788;2023-01-20T11:36:49;29.58;;;16.98;;
47219;SDS011;32961;51.936;4.788;2023-01-20T11:39:41;28.60;;;16.92;;
47219;SDS011;32961;51.936;4.788;2023-01-20T11:42:14;31.27;;;16.83;;
47219;SDS011;32961;51.936;4.788;2023-01-20T11:44:45;27.10;;;16.65;;
47219;SDS011;32961;51.936;4.788;2023-01-20T11:58:30;25.38;;;17.20;;
47219;SDS011;32961;51.936;4.788;2023-01-20T12:08:15;21.67;;;12.93;;
47219;SDS011;32961;51.936;4.788;2023-01-20T12:10:59;35.60;;;20.40;;
47219;SDS011;32961;51.936;4.788;2023-01-20T12:14:09;28.90;;;16.73;;
47219;SDS011;32961;51.936;4.788;2023-01-20T12:17:38;32.28;;;18.95;;
47219;SDS011;32961;51.936;4.788;2023-01-20T12:20:18;30.45;;;19.55;;
47219;SDS011;32961;51.936;4.788;2023-01-20T12:23:23;31.33;;;17.38;;
47219;SDS011;32961;51.936;4.788;2023-01-20T12:25:59;31.73;;;18.25;;
47219;SDS011;32961;51.936;4.788;2023-01-20T12:28:33;26.60;;;16.75;;
47219;SDS011;32961;51.936;4.788;2023-01-20T12:31:07;36.45;;;17.92;;
47219;SDS011;32961;51.936;4.788;2023-01-20T12:33:39;27.10;;;17.45;;
47219;SDS011;32961;51.936;4.788;2023-01-20T12:39:26;31.88;;;19.33;;
47219;SDS011;32961;51.936;4.788;2023-01-20T12:42:12;35.50;;;17.85;;
47219;SDS011;32961;51.936;4.788;2023-01-20T12:45:18;31.48;;;18.13;;
47219;SDS011;32961;51.936;4.788;2023-01-20T12:48:01;23.45;;;15.93;;
47219;SDS011;32961;51.936;4.788;2023-01-20T12:50:50;24.70;;;14.77;;
47219;SDS011;32961;51.936;4.788;2023-01-20T13:33:12;17.58;;;9.57;;
47219;SDS011;32961;51.936;4.788;2023-01-20T13:35:57;15.98;;;8.80;;
47219;SDS011;32961;51.936;4.788;2023-01-20T13:38:45;18.38;;;11.30;;
